createdAt,value
2023-03-25T00:00:53.732Z,0
2023-03-25T00:01:54.777Z,0
2023-03-25T00:02:56.353Z,0
2023-03-25T00:03:56.577Z,0
2023-03-25T00:04:56.489Z,0
2023-03-25T00:05:57.135Z,0
2023-03-25T00:06:57.819Z,0
2023-03-25T00:07:58.498Z,0
2023-03-25T00:08:59.248Z,0
2023-03-25T00:09:59.757Z,0
2023-03-25T00:11:00.285Z,0
2023-03-25T00:12:00.399Z,0
2023-03-25T00:13:00.792Z,0
2023-03-25T00:14:01.481Z,0
2023-03-25T00:15:02.005Z,0
2023-03-25T00:16:03.533Z,0
2023-03-25T00:17:03.627Z,0
2023-03-25T00:18:03.552Z,0
2023-03-25T00:19:04.612Z,0
2023-03-25T00:20:05.098Z,0
2023-03-25T00:21:05.800Z,0
2023-03-25T00:22:06.488Z,0
2023-03-25T00:23:07.729Z,0
2023-03-25T00:24:08.269Z,0
2023-03-25T00:25:08.570Z,0
2023-03-25T00:26:09.549Z,0
2023-03-25T00:27:09.427Z,0
2023-03-25T00:28:09.702Z,0
2023-03-25T00:29:10.801Z,0
2023-03-25T00:30:10.770Z,0
2023-03-25T00:31:11.865Z,0
2023-03-25T00:32:11.642Z,0
2023-03-25T00:33:12.565Z,0
2023-03-25T00:34:13.247Z,0
2023-03-25T00:35:13.623Z,0
2023-03-25T00:36:15.370Z,0
2023-03-25T00:37:15.394Z,0
2023-03-25T00:38:15.668Z,0
2023-03-25T00:39:16.428Z,0
2023-03-25T00:40:17.328Z,0
2023-03-25T00:41:18.475Z,0
2023-03-25T00:42:18.778Z,0
2023-03-25T00:43:19.991Z,0
2023-03-25T00:44:20.521Z,0
2023-03-25T00:45:21.463Z,0
2023-03-25T00:46:22.655Z,0
2023-03-25T00:47:22.690Z,0
2023-03-25T00:48:23.915Z,0
2023-03-25T00:49:24.015Z,0
2023-03-25T00:50:24.719Z,0
2023-03-25T00:51:25.460Z,0
2023-03-25T00:52:25.537Z,0
2023-03-25T00:53:25.926Z,0
2023-03-25T00:54:26.189Z,0
2023-03-25T00:55:26.479Z,0
2023-03-25T00:56:27.225Z,0
2023-03-25T00:57:28.042Z,0
2023-03-25T00:58:28.783Z,0
2023-03-25T00:59:29.281Z,0
2023-03-25T01:00:30.060Z,0
2023-03-25T01:01:30.974Z,0
2023-03-25T01:02:31.798Z,0
2023-03-25T01:03:32.461Z,0
2023-03-25T01:04:33.475Z,0
2023-03-25T01:05:34.496Z,0
2023-03-25T01:06:35.207Z,0
2023-03-25T01:07:36.149Z,0
2023-03-25T01:08:36.650Z,0
2023-03-25T01:09:37.565Z,0
2023-03-25T01:10:38.275Z,0
2023-03-25T01:11:38.745Z,0
2023-03-25T01:12:39.442Z,0
2023-03-25T01:13:40.018Z,0
2023-03-25T01:14:40.708Z,0
2023-03-25T01:15:41.628Z,0
2023-03-25T01:16:42.643Z,0
2023-03-25T01:17:43.561Z,0
2023-03-25T01:18:44.324Z,0
2023-03-25T01:19:45.230Z,0
2023-03-25T01:20:45.526Z,0
2023-03-25T01:21:46.035Z,0
2023-03-25T01:22:46.782Z,0
2023-03-25T01:23:47.012Z,0
2023-03-25T01:24:47.739Z,0
2023-03-25T01:25:48.141Z,0
2023-03-25T01:26:48.987Z,0
2023-03-25T01:27:49.734Z,0
2023-03-25T01:28:50.234Z,0
2023-03-25T01:29:50.954Z,0
2023-03-25T01:30:51.901Z,0
2023-03-25T01:31:52.259Z,0
2023-03-25T01:32:52.294Z,0
2023-03-25T01:33:53.133Z,0
2023-03-25T01:34:53.477Z,0
2023-03-25T01:35:54.603Z,0
2023-03-25T01:36:55.144Z,0
2023-03-25T01:37:55.880Z,0
2023-03-25T01:38:56.761Z,0
2023-03-25T01:39:57.464Z,0
2023-03-25T01:40:58.140Z,0
2023-03-25T01:42:06.245Z,0
2023-03-25T01:42:58.753Z,0
2023-03-25T01:43:59.345Z,0
2023-03-25T01:44:59.841Z,0
2023-03-25T01:46:01.353Z,0
2023-03-25T01:47:01.799Z,0
2023-03-25T01:48:02.075Z,0
2023-03-25T01:49:01.347Z,0
2023-03-25T01:50:02.041Z,0
2023-03-25T01:51:02.548Z,0
2023-03-25T01:52:03.221Z,0
2023-03-25T01:53:03.710Z,0
2023-03-25T01:54:04.297Z,0
2023-03-25T01:55:05.003Z,0
2023-03-25T01:56:05.444Z,0
2023-03-25T01:57:05.935Z,0
2023-03-25T01:58:07.069Z,0
2023-03-25T01:59:07.573Z,0
2023-03-25T02:00:08.117Z,0
2023-03-25T02:01:08.986Z,0
2023-03-25T02:02:10.107Z,0
2023-03-25T02:03:10.120Z,0
2023-03-25T02:04:10.623Z,0
2023-03-25T02:05:11.556Z,0
2023-03-25T02:06:11.440Z,0
2023-03-25T02:07:11.996Z,0
2023-03-25T02:08:12.938Z,0
2023-03-25T02:09:12.625Z,0
2023-03-25T02:10:13.508Z,0
2023-03-25T02:11:14.419Z,0
2023-03-25T02:12:15.120Z,0
2023-03-25T02:13:15.816Z,0
2023-03-25T02:14:16.170Z,0
2023-03-25T02:15:17.100Z,0
2023-03-25T02:16:18.464Z,0
2023-03-25T02:17:18.484Z,0
2023-03-25T02:18:19.229Z,0
2023-03-25T02:19:19.733Z,0
2023-03-25T02:20:20.650Z,0
2023-03-25T02:21:21.162Z,0
2023-03-25T02:22:22.255Z,0
2023-03-25T02:23:22.825Z,0
2023-03-25T02:24:22.855Z,0
2023-03-25T02:25:23.589Z,0
2023-03-25T02:26:24.465Z,0
2023-03-25T02:27:25.274Z,0
2023-03-25T02:28:26.081Z,0
2023-03-25T02:29:26.508Z,0
2023-03-25T02:30:27.655Z,0
2023-03-25T02:31:28.096Z,0
2023-03-25T02:32:28.761Z,0
2023-03-25T02:33:29.348Z,0
2023-03-25T02:34:30.159Z,0
2023-03-25T02:35:30.962Z,0
2023-03-25T02:36:31.679Z,0
2023-03-25T02:37:32.572Z,0
2023-03-25T02:38:33.860Z,0
2023-03-25T02:39:33.380Z,0
2023-03-25T02:40:33.916Z,0
2023-03-25T02:41:34.849Z,0
2023-03-25T02:42:35.112Z,0
2023-03-25T02:43:35.788Z,0
2023-03-25T02:44:36.073Z,0
2023-03-25T02:45:37.243Z,0
2023-03-25T02:46:38.201Z,0
2023-03-25T02:47:38.112Z,0
2023-03-25T02:48:39.091Z,0
2023-03-25T02:49:40.204Z,0
2023-03-25T02:50:39.743Z,0
2023-03-25T02:51:40.472Z,0
2023-03-25T02:52:40.943Z,0
2023-03-25T02:53:41.255Z,0
2023-03-25T02:54:41.650Z,0
2023-03-25T02:55:42.144Z,0
2023-03-25T02:56:42.727Z,0
2023-03-25T02:57:43.460Z,0
2023-03-25T02:58:44.353Z,0
2023-03-25T02:59:44.638Z,0
2023-03-25T03:00:45.538Z,0
2023-03-25T03:01:46.767Z,0
2023-03-25T03:02:47.316Z,0
2023-03-25T03:03:47.235Z,0
2023-03-25T03:05:47.812Z,0
2023-03-25T03:06:48.516Z,0
2023-03-25T03:07:49.029Z,0
2023-03-25T03:08:49.752Z,0
2023-03-25T03:09:50.477Z,0
2023-03-25T03:10:51.564Z,0
2023-03-25T03:11:51.639Z,0
2023-03-25T03:12:52.099Z,0
2023-03-25T03:13:52.639Z,0
2023-03-25T03:14:53.244Z,0
2023-03-25T03:15:54.228Z,0
2023-03-25T03:16:55.710Z,0
2023-03-25T03:17:56.168Z,0
2023-03-25T03:18:55.853Z,0
2023-03-25T03:19:56.354Z,0
2023-03-25T03:20:57.290Z,0
2023-03-25T03:21:58.803Z,0
2023-03-25T03:22:58.710Z,0
2023-03-25T03:23:58.631Z,0
2023-03-25T03:24:59.412Z,0
2023-03-25T03:26:00.658Z,0
2023-03-25T03:27:00.379Z,0
2023-03-25T03:28:00.656Z,0
2023-03-25T03:29:02.466Z,0
2023-03-25T03:30:02.543Z,0
2023-03-25T03:31:03.545Z,0
2023-03-25T03:32:23.440Z,0
2023-03-25T03:34:05.696Z,0
2023-03-25T03:35:07.221Z,0
2023-03-25T03:36:07.652Z,0
2023-03-25T03:37:07.345Z,0
2023-03-25T03:38:08.141Z,0
2023-03-25T03:39:08.829Z,0
2023-03-25T03:40:09.755Z,0
2023-03-25T03:41:10.469Z,0
2023-03-25T03:42:11.235Z,0
2023-03-25T03:43:11.743Z,0
2023-03-25T03:44:12.052Z,0
2023-03-25T03:45:12.390Z,0
2023-03-25T03:46:13.275Z,0
2023-03-25T03:47:14.223Z,0
2023-03-25T03:48:15.413Z,0
2023-03-25T03:49:16.152Z,0
2023-03-25T03:50:17.103Z,0
2023-03-25T03:51:17.598Z,0
2023-03-25T03:52:24.414Z,0
2023-03-25T03:53:19.346Z,0
2023-03-25T03:54:20.053Z,0
2023-03-25T03:55:20.252Z,0
2023-03-25T03:56:20.752Z,0
2023-03-25T03:57:21.586Z,0
2023-03-25T03:58:21.883Z,0
2023-03-25T03:59:22.601Z,0
2023-03-25T04:00:23.275Z,0
2023-03-25T04:01:23.753Z,0
2023-03-25T04:02:24.890Z,0
2023-03-25T04:03:25.513Z,0
2023-03-25T04:04:25.384Z,0
2023-03-25T04:05:25.452Z,0
2023-03-25T04:06:25.950Z,0
2023-03-25T04:07:26.887Z,0
2023-03-25T04:08:27.577Z,0
2023-03-25T04:09:28.267Z,0
2023-03-25T04:10:28.771Z,0
2023-03-25T04:11:29.293Z,0
2023-03-25T04:12:29.550Z,0
2023-03-25T04:13:30.284Z,0
2023-03-25T04:14:31.173Z,0
2023-03-25T04:15:31.791Z,0
2023-03-25T04:16:34.751Z,0
2023-03-25T04:17:34.304Z,0
2023-03-25T04:18:34.578Z,0
2023-03-25T04:19:34.119Z,0
2023-03-25T04:20:35.236Z,0
2023-03-25T04:21:35.495Z,0
2023-03-25T04:22:36.406Z,0
2023-03-25T04:23:37.092Z,0
2023-03-25T04:24:37.905Z,0
2023-03-25T04:25:38.353Z,0
2023-03-25T04:26:38.825Z,0
2023-03-25T04:27:39.726Z,0
2023-03-25T04:28:40.702Z,0
2023-03-25T04:29:40.185Z,0
2023-03-25T04:30:40.664Z,0
2023-03-25T04:31:41.818Z,0
2023-03-25T04:32:41.319Z,0
2023-03-25T04:33:41.853Z,0
2023-03-25T04:34:42.589Z,0
2023-03-25T04:35:43.433Z,0
2023-03-25T04:36:44.358Z,0
2023-03-25T04:37:45.249Z,0
2023-03-25T04:38:46.259Z,0
2023-03-25T04:39:46.731Z,0
2023-03-25T04:40:47.488Z,0
2023-03-25T04:41:48.674Z,0
2023-03-25T04:42:48.643Z,0
2023-03-25T04:43:49.368Z,0
2023-03-25T04:44:50.377Z,0
2023-03-25T04:45:51.134Z,0
2023-03-25T04:46:51.733Z,0
2023-03-25T04:47:52.994Z,0
2023-03-25T04:48:53.288Z,0
2023-03-25T04:49:54.077Z,0
2023-03-25T04:50:54.746Z,0
2023-03-25T04:51:55.918Z,0
2023-03-25T04:52:56.654Z,0
2023-03-25T04:53:57.564Z,0
2023-03-25T04:54:58.133Z,0
2023-03-25T04:55:58.989Z,0
2023-03-25T04:56:59.603Z,0
2023-03-25T04:58:00.358Z,0
2023-03-25T04:59:01.043Z,0
2023-03-25T05:00:01.341Z,0
2023-03-25T05:01:02.162Z,0
2023-03-25T05:02:02.645Z,0
2023-03-25T05:03:03.631Z,0
2023-03-25T05:04:03.660Z,0
2023-03-25T05:05:04.868Z,0
2023-03-25T05:06:05.389Z,0
2023-03-25T05:07:05.885Z,0
2023-03-25T05:08:06.859Z,0
2023-03-25T05:09:06.339Z,0
2023-03-25T05:10:07.046Z,0
2023-03-25T05:11:07.329Z,0
2023-03-25T05:12:08.045Z,0
2023-03-25T05:13:08.944Z,0
2023-03-25T05:14:09.935Z,0
2023-03-25T05:15:10.429Z,0
2023-03-25T05:16:11.170Z,0
2023-03-25T05:17:11.930Z,0
2023-03-25T05:18:13.113Z,0
2023-03-25T05:19:13.300Z,0
2023-03-25T05:20:13.452Z,0
2023-03-25T05:21:13.301Z,5.63
2023-03-25T05:22:14.012Z,5.63
2023-03-25T05:23:14.839Z,5.63
2023-03-25T05:24:15.595Z,5.63
2023-03-25T05:25:16.538Z,5.63
2023-03-25T05:26:17.007Z,5.63
2023-03-25T05:27:17.501Z,5.63
2023-03-25T05:28:18.683Z,5.63
2023-03-25T05:29:19.949Z,0
2023-03-25T05:30:19.658Z,0
2023-03-25T05:31:20.794Z,0
2023-03-25T05:32:21.596Z,0
2023-03-25T05:33:22.633Z,0
2023-03-25T05:34:23.403Z,0
2023-03-25T05:35:24.160Z,0
2023-03-25T05:36:24.746Z,0
2023-03-25T05:37:25.432Z,0
2023-03-25T05:38:25.927Z,0
2023-03-25T05:39:26.668Z,5.63
2023-03-25T05:40:31.415Z,5.63
2023-03-25T05:41:27.548Z,5.63
2023-03-25T05:42:28.378Z,5.63
2023-03-25T05:43:29.129Z,11.25
2023-03-25T05:44:29.812Z,11.25
2023-03-25T05:45:30.308Z,11.25
2023-03-25T05:46:30.954Z,11.25
2023-03-25T05:47:31.333Z,11.25
2023-03-25T05:48:32.093Z,16.88
2023-03-25T05:49:33.096Z,16.88
2023-03-25T05:50:34.082Z,16.88
2023-03-25T05:51:34.975Z,16.88
2023-03-25T05:52:36.066Z,16.88
2023-03-25T05:53:36.966Z,22.5
2023-03-25T05:54:37.435Z,22.5
2023-03-25T05:55:44.101Z,28.13
2023-03-25T05:57:39.633Z,28.13
2023-03-25T05:58:40.745Z,33.75
2023-03-25T05:59:41.654Z,33.75
2023-03-25T06:00:42.809Z,33.75
2023-03-25T06:01:47.823Z,33.75
2023-03-25T06:02:42.682Z,33.75
2023-03-25T06:03:44.115Z,33.75
2023-03-25T06:04:43.910Z,33.75
2023-03-25T06:05:44.700Z,33.75
2023-03-25T06:06:45.856Z,28.13
2023-03-25T06:07:45.349Z,28.13
2023-03-25T06:08:45.991Z,28.13
2023-03-25T06:09:46.877Z,28.13
2023-03-25T06:10:47.604Z,22.5
2023-03-25T06:11:48.085Z,22.5
2023-03-25T06:12:49.203Z,16.88
2023-03-25T06:13:49.719Z,16.88
2023-03-25T06:14:49.817Z,16.88
2023-03-25T06:15:51.055Z,16.88
2023-03-25T06:16:50.785Z,16.88
2023-03-25T06:17:51.501Z,16.88
2023-03-25T06:18:52.427Z,16.88
2023-03-25T06:19:53.380Z,16.88
2023-03-25T06:20:54.321Z,16.88
2023-03-25T06:21:55.013Z,16.88
2023-03-25T06:22:55.530Z,22.5
2023-03-25T06:23:55.624Z,22.5
2023-03-25T06:24:57.333Z,28.13
2023-03-25T06:25:58.186Z,28.13
2023-03-25T06:26:58.205Z,33.75
2023-03-25T06:27:58.798Z,33.75
2023-03-25T06:28:59.500Z,33.75
2023-03-25T06:30:00.206Z,33.75
2023-03-25T06:31:01.227Z,33.75
2023-03-25T06:32:00.990Z,28.13
2023-03-25T06:33:01.849Z,28.13
2023-03-25T06:34:02.756Z,28.13
2023-03-25T06:35:03.523Z,28.13
2023-03-25T06:36:04.508Z,28.13
2023-03-25T06:37:04.139Z,22.5
2023-03-25T06:38:04.847Z,22.5
2023-03-25T06:39:05.410Z,22.5
2023-03-25T06:40:06.132Z,22.5
2023-03-25T06:41:06.839Z,22.5
2023-03-25T06:42:07.518Z,22.5
2023-03-25T06:43:08.040Z,22.5
2023-03-25T06:44:08.725Z,22.5
2023-03-25T06:45:09.825Z,22.5
2023-03-25T06:46:11.076Z,22.5
2023-03-25T06:47:10.984Z,22.5
2023-03-25T06:48:11.583Z,22.5
2023-03-25T06:49:12.707Z,28.13
2023-03-25T06:50:13.484Z,33.75
2023-03-25T06:51:14.303Z,39.38
2023-03-25T06:52:15.200Z,39.38
2023-03-25T06:53:15.766Z,39.38
2023-03-25T06:54:16.646Z,39.38
2023-03-25T06:55:16.953Z,39.38
2023-03-25T06:56:18.635Z,39.38
2023-03-25T06:57:19.139Z,39.38
2023-03-25T06:58:18.645Z,33.75
2023-03-25T06:59:19.585Z,33.75
2023-03-25T07:00:20.140Z,33.75
2023-03-25T07:01:21.299Z,39.38
2023-03-25T07:02:21.126Z,39.38
2023-03-25T07:03:21.422Z,45
2023-03-25T07:04:24.699Z,56.25
2023-03-25T07:05:23.215Z,67.5
2023-03-25T07:06:23.008Z,67.5
2023-03-25T07:07:24.458Z,67.5
2023-03-25T07:08:25.174Z,67.5
2023-03-25T07:09:25.847Z,61.88
2023-03-25T07:10:26.536Z,56.25
2023-03-25T07:11:26.627Z,50.63
2023-03-25T07:12:27.347Z,39.38
2023-03-25T07:13:28.060Z,39.38
2023-03-25T07:14:28.541Z,33.75
2023-03-25T07:15:29.050Z,33.75
2023-03-25T07:16:31.127Z,39.38
2023-03-25T07:17:30.856Z,39.38
2023-03-25T07:18:31.570Z,45
2023-03-25T07:19:32.668Z,50.63
2023-03-25T07:20:34.005Z,56.25
2023-03-25T07:21:33.772Z,61.88
2023-03-25T07:22:34.070Z,67.5
2023-03-25T07:23:34.867Z,73.13
2023-03-25T07:24:35.564Z,73.13
2023-03-25T07:25:36.454Z,84.38
2023-03-25T07:26:37.200Z,84.38
2023-03-25T07:27:36.953Z,90
2023-03-25T07:28:37.842Z,90
2023-03-25T07:29:38.536Z,95.63
2023-03-25T07:30:39.443Z,95.63
2023-03-25T07:31:40.153Z,95.63
2023-03-25T07:32:41.541Z,90
2023-03-25T07:33:41.236Z,84.38
2023-03-25T07:34:42.143Z,118.13
2023-03-25T07:35:43.348Z,129.38
2023-03-25T07:36:43.565Z,157.5
2023-03-25T07:37:44.219Z,140.63
2023-03-25T07:38:44.715Z,489.38
2023-03-25T07:39:45.613Z,247.5
2023-03-25T07:40:49.883Z,579.38
2023-03-25T07:41:46.610Z,573.75
2023-03-25T07:42:47.309Z,253.13
2023-03-25T07:43:48.234Z,163.13
2023-03-25T07:44:49.255Z,123.75
2023-03-25T07:46:00.838Z,118.13
2023-03-25T07:46:50.696Z,118.13
2023-03-25T07:47:50.799Z,123.75
2023-03-25T07:48:51.508Z,106.88
2023-03-25T07:49:52.647Z,95.63
2023-03-25T07:50:53.607Z,78.75
2023-03-25T07:51:54.347Z,73.13
2023-03-25T07:52:54.653Z,78.75
2023-03-25T07:53:55.498Z,78.75
2023-03-25T07:54:55.299Z,78.75
2023-03-25T07:55:56.118Z,78.75
2023-03-25T07:56:56.860Z,78.75
2023-03-25T07:57:57.470Z,78.75
2023-03-25T07:58:58.265Z,67.5
2023-03-25T07:59:58.764Z,50.63
2023-03-25T08:00:58.900Z,39.38
2023-03-25T08:01:59.440Z,33.75
2023-03-25T08:03:00.291Z,39.38
2023-03-25T08:04:01.282Z,39.38
2023-03-25T08:05:04.249Z,45
2023-03-25T08:06:02.975Z,50.63
2023-03-25T08:07:02.737Z,56.25
2023-03-25T08:08:04.097Z,61.88
2023-03-25T08:09:03.592Z,78.75
2023-03-25T08:10:04.508Z,78.75
2023-03-25T08:11:05.655Z,84.38
2023-03-25T08:12:05.131Z,90
2023-03-25T08:13:05.851Z,84.38
2023-03-25T08:14:06.591Z,73.13
2023-03-25T08:15:07.700Z,73.13
2023-03-25T08:16:07.281Z,84.38
2023-03-25T08:17:07.973Z,84.38
2023-03-25T08:18:09.306Z,90
2023-03-25T08:19:08.868Z,95.63
2023-03-25T08:20:10.223Z,106.88
2023-03-25T08:21:09.999Z,106.88
2023-03-25T08:22:10.587Z,123.75
2023-03-25T08:23:11.273Z,135
2023-03-25T08:24:12.177Z,157.5
2023-03-25T08:25:12.850Z,286.88
2023-03-25T08:26:13.622Z,180
2023-03-25T08:27:27.510Z,208.13
2023-03-25T08:29:16.453Z,286.88
2023-03-25T08:30:14.795Z,208.13
2023-03-25T08:31:15.520Z,337.5
2023-03-25T08:32:16.407Z,416.25
2023-03-25T08:33:17.895Z,331.88
2023-03-25T08:34:18.018Z,331.88
2023-03-25T08:35:17.552Z,202.5
2023-03-25T08:36:18.496Z,174.38
2023-03-25T08:37:18.664Z,174.38
2023-03-25T08:38:19.467Z,163.13
2023-03-25T08:39:19.948Z,225
2023-03-25T08:40:20.494Z,196.88
2023-03-25T08:41:21.193Z,185.63
2023-03-25T08:42:21.709Z,196.88
2023-03-25T08:43:22.196Z,202.5
2023-03-25T08:44:22.756Z,225
2023-03-25T08:45:23.151Z,241.88
2023-03-25T08:46:24.083Z,213.75
2023-03-25T08:47:24.648Z,202.5
2023-03-25T08:48:25.317Z,202.5
2023-03-25T08:49:24.821Z,196.88
2023-03-25T08:50:25.781Z,202.5
2023-03-25T08:51:26.927Z,236.25
2023-03-25T08:52:27.475Z,253.13
2023-03-25T08:53:28.047Z,247.5
2023-03-25T08:54:28.739Z,236.25
2023-03-25T08:55:29.450Z,213.75
2023-03-25T08:56:30.171Z,219.38
2023-03-25T08:57:30.537Z,315
2023-03-25T08:58:31.348Z,230.63
2023-03-25T08:59:31.903Z,253.13
2023-03-25T09:00:32.649Z,241.88
2023-03-25T09:01:33.714Z,230.63
2023-03-25T09:02:34.599Z,298.13
2023-03-25T09:03:34.913Z,253.13
2023-03-25T09:04:34.840Z,264.38
2023-03-25T09:05:36.249Z,292.5
2023-03-25T09:07:10.221Z,264.38
2023-03-25T09:07:36.283Z,275.63
2023-03-25T09:08:36.954Z,275.63
2023-03-25T09:09:37.657Z,225
2023-03-25T09:10:39.495Z,208.13
2023-03-25T09:11:50.145Z,309.38
2023-03-25T09:12:39.427Z,225
2023-03-25T09:13:40.114Z,196.88
2023-03-25T09:14:40.867Z,185.63
2023-03-25T09:15:41.433Z,230.63
2023-03-25T09:16:42.142Z,202.5
2023-03-25T09:17:43.107Z,202.5
2023-03-25T09:18:43.946Z,202.5
2023-03-25T09:19:44.492Z,196.88
2023-03-25T09:20:45.011Z,191.25
2023-03-25T09:21:45.556Z,196.88
2023-03-25T09:22:46.727Z,230.63
2023-03-25T09:23:46.536Z,286.88
2023-03-25T09:24:47.443Z,236.25
2023-03-25T09:25:46.928Z,225
2023-03-25T09:26:47.447Z,213.75
2023-03-25T09:27:48.155Z,315
2023-03-25T09:28:48.573Z,241.88
2023-03-25T09:29:49.530Z,264.38
2023-03-25T09:30:50.460Z,180
2023-03-25T09:31:51.419Z,168.75
2023-03-25T09:32:52.173Z,157.5
2023-03-25T09:33:53.117Z,191.25
2023-03-25T09:34:53.613Z,185.63
2023-03-25T09:35:54.467Z,191.25
2023-03-25T09:36:54.765Z,129.38
2023-03-25T09:37:57.393Z,118.13
2023-03-25T09:39:55.560Z,112.5
2023-03-25T09:40:56.702Z,112.5
2023-03-25T09:41:56.609Z,106.88
2023-03-25T09:42:57.300Z,106.88
2023-03-25T09:43:58.001Z,118.13
2023-03-25T09:44:59.173Z,129.38
2023-03-25T09:45:59.189Z,163.13
2023-03-25T09:47:00.227Z,168.75
2023-03-25T09:48:01.337Z,180
2023-03-25T09:49:01.802Z,191.25
2023-03-25T09:50:05.498Z,185.63
2023-03-25T09:51:03.146Z,185.63
2023-03-25T09:52:04.124Z,174.38
2023-03-25T09:53:05.103Z,163.13
2023-03-25T09:54:05.019Z,157.5
2023-03-25T09:55:05.914Z,151.88
2023-03-25T09:56:06.876Z,151.88
2023-03-25T09:57:07.883Z,140.63
2023-03-25T09:58:08.865Z,146.25
2023-03-25T09:59:09.446Z,135
2023-03-25T10:00:10.180Z,140.63
2023-03-25T10:01:11.426Z,140.63
2023-03-25T10:02:11.392Z,146.25
2023-03-25T10:03:12.357Z,163.13
2023-03-25T10:04:12.673Z,174.38
2023-03-25T10:05:13.237Z,196.88
2023-03-25T10:06:13.952Z,185.63
2023-03-25T10:07:14.888Z,202.5
2023-03-25T10:08:15.840Z,213.75
2023-03-25T10:09:16.462Z,208.13
2023-03-25T10:10:16.798Z,202.5
2023-03-25T10:11:17.333Z,185.63
2023-03-25T10:12:18.844Z,157.5
2023-03-25T10:13:19.971Z,151.88
2023-03-25T10:14:18.611Z,163.13
2023-03-25T10:15:19.520Z,185.63
2023-03-25T10:16:20.030Z,208.13
2023-03-25T10:17:20.939Z,247.5
2023-03-25T10:18:21.748Z,264.38
2023-03-25T10:19:21.696Z,253.13
2023-03-25T10:20:23.204Z,241.88
2023-03-25T10:21:23.779Z,208.13
2023-03-25T10:22:24.972Z,191.25
2023-03-25T10:23:24.729Z,174.38
2023-03-25T10:24:25.650Z,168.75
2023-03-25T10:25:26.171Z,157.5
2023-03-25T10:26:26.887Z,146.25
2023-03-25T10:27:27.398Z,135
2023-03-25T10:28:28.297Z,123.75
2023-03-25T10:29:28.668Z,118.13
2023-03-25T10:30:29.171Z,101.25
2023-03-25T10:31:30.216Z,90
2023-03-25T10:32:31.420Z,84.38
2023-03-25T10:33:31.209Z,78.75
2023-03-25T10:34:31.898Z,78.75
2023-03-25T10:35:32.421Z,78.75
2023-03-25T10:36:33.357Z,78.75
2023-03-25T10:37:34.515Z,78.75
2023-03-25T10:38:35.455Z,78.75
2023-03-25T10:39:36.495Z,78.75
2023-03-25T10:40:38.311Z,84.38
2023-03-25T10:41:36.604Z,90
2023-03-25T10:42:37.504Z,95.63
2023-03-25T10:43:38.217Z,101.25
2023-03-25T10:44:39.125Z,101.25
2023-03-25T10:45:39.894Z,95.63
2023-03-25T10:46:40.414Z,95.63
2023-03-25T10:47:41.111Z,95.63
2023-03-25T10:48:41.654Z,95.63
2023-03-25T10:49:42.448Z,106.88
2023-03-25T10:50:43.139Z,129.38
2023-03-25T10:51:43.677Z,191.25
2023-03-25T10:52:44.235Z,180
2023-03-25T10:53:45.197Z,185.63
2023-03-25T10:54:46.113Z,196.88
2023-03-25T10:55:46.806Z,247.5
2023-03-25T10:56:47.729Z,286.88
2023-03-25T10:57:47.060Z,298.13
2023-03-25T10:58:48.042Z,264.38
2023-03-25T10:59:48.186Z,241.88
2023-03-25T11:00:48.356Z,264.38
2023-03-25T11:01:49.244Z,264.38
2023-03-25T11:02:50.574Z,258.75
2023-03-25T11:03:50.383Z,258.75
2023-03-25T11:04:51.095Z,326.25
2023-03-25T11:05:51.935Z,337.5
2023-03-25T11:06:52.643Z,286.88
2023-03-25T11:07:53.905Z,281.25
2023-03-25T11:08:54.762Z,320.63
2023-03-25T11:09:55.202Z,540
2023-03-25T11:10:55.906Z,236.25
2023-03-25T11:11:56.682Z,230.63
2023-03-25T11:12:59.581Z,236.25
2023-03-25T11:13:58.059Z,270
2023-03-25T11:14:58.744Z,320.63
2023-03-25T11:16:00.473Z,388.13
2023-03-25T11:17:00.238Z,354.38
2023-03-25T11:18:01.159Z,326.25
2023-03-25T11:19:01.882Z,393.75
2023-03-25T11:20:02.512Z,264.38
2023-03-25T11:21:03.244Z,270
2023-03-25T11:22:03.996Z,247.5
2023-03-25T11:23:04.585Z,275.63
2023-03-25T11:24:05.178Z,286.88
2023-03-25T11:25:05.899Z,281.25
2023-03-25T11:26:06.857Z,585
2023-03-25T11:27:06.128Z,399.38
2023-03-25T11:28:07.897Z,371.25
2023-03-25T11:29:08.417Z,258.75
2023-03-25T11:30:09.352Z,208.13
2023-03-25T11:31:09.895Z,180
2023-03-25T11:32:10.571Z,157.5
2023-03-25T11:33:12.014Z,151.88
2023-03-25T11:34:12.293Z,146.25
2023-03-25T11:35:11.862Z,146.25
2023-03-25T11:36:13.034Z,151.88
2023-03-25T11:37:13.964Z,163.13
2023-03-25T11:38:14.937Z,135
2023-03-25T11:39:16.635Z,140.63
2023-03-25T11:41:16.089Z,140.63
2023-03-25T11:42:16.611Z,146.25
2023-03-25T11:43:17.513Z,135
2023-03-25T11:44:18.219Z,118.13
2023-03-25T11:45:19.138Z,123.75
2023-03-25T11:46:19.868Z,118.13
2023-03-25T11:47:20.628Z,118.13
2023-03-25T11:48:21.772Z,106.88
2023-03-25T11:49:22.334Z,84.38
2023-03-25T11:50:23.015Z,61.88
2023-03-25T11:51:23.702Z,50.63
2023-03-25T11:52:24.657Z,50.63
2023-03-25T11:53:26.043Z,50.63
2023-03-25T11:54:25.500Z,50.63
2023-03-25T11:55:26.405Z,56.25
2023-03-25T11:56:27.504Z,50.63
2023-03-25T11:57:29.225Z,50.63
2023-03-25T11:58:28.660Z,50.63
2023-03-25T11:59:29.593Z,56.25
2023-03-25T12:00:30.462Z,56.25
2023-03-25T12:01:31.557Z,56.25
2023-03-25T12:02:32.344Z,67.5
2023-03-25T12:03:34.708Z,73.13
2023-03-25T12:04:32.318Z,78.75
2023-03-25T12:05:32.879Z,90
2023-03-25T12:06:33.555Z,101.25
2023-03-25T12:07:34.520Z,106.88
2023-03-25T12:08:35.272Z,112.5
2023-03-25T12:09:36.312Z,140.63
2023-03-25T12:10:36.787Z,168.75
2023-03-25T12:11:37.489Z,208.13
2023-03-25T12:12:38.155Z,230.63
2023-03-25T12:13:38.449Z,236.25
2023-03-25T12:14:39.158Z,281.25
2023-03-25T12:15:41.554Z,315
2023-03-25T12:16:40.409Z,298.13
2023-03-25T12:17:41.638Z,270
2023-03-25T12:18:41.354Z,236.25
2023-03-25T12:19:42.486Z,213.75
2023-03-25T12:20:42.884Z,202.5
2023-03-25T12:21:43.648Z,191.25
2023-03-25T12:22:44.633Z,191.25
2023-03-25T12:23:45.457Z,196.88
2023-03-25T12:24:45.812Z,208.13
2023-03-25T12:25:46.706Z,225
2023-03-25T12:26:47.225Z,298.13
2023-03-25T12:27:48.153Z,258.75
2023-03-25T12:28:48.734Z,236.25
2023-03-25T12:29:49.234Z,230.63
2023-03-25T12:30:49.636Z,241.88
2023-03-25T12:31:50.428Z,241.88
2023-03-25T12:32:51.390Z,376.88
2023-03-25T12:33:51.558Z,270
2023-03-25T12:34:54.744Z,230.63
2023-03-25T12:35:52.823Z,270
2023-03-25T12:36:53.580Z,208.13
2023-03-25T12:37:54.322Z,185.63
2023-03-25T12:38:55.050Z,163.13
2023-03-25T12:39:59.744Z,140.63
2023-03-25T12:40:55.974Z,123.75
2023-03-25T12:41:56.684Z,95.63
2023-03-25T12:42:57.381Z,78.75
2023-03-25T12:43:57.748Z,67.5
2023-03-25T12:44:58.048Z,61.88
2023-03-25T12:45:58.815Z,61.88
2023-03-25T12:46:59.174Z,61.88
2023-03-25T12:48:00.488Z,61.88
2023-03-25T12:48:59.655Z,67.5
2023-03-25T12:50:00.167Z,73.13
2023-03-25T12:51:13.867Z,90
2023-03-25T12:52:01.826Z,84.38
2023-03-25T12:53:02.577Z,73.13
2023-03-25T12:54:03.332Z,61.88
2023-03-25T12:55:04.381Z,56.25
2023-03-25T12:56:04.420Z,61.88
2023-03-25T12:57:05.367Z,67.5
2023-03-25T12:58:05.186Z,67.5
2023-03-25T12:59:05.507Z,67.5
2023-03-25T13:00:05.802Z,73.13
2023-03-25T13:01:07.294Z,90
2023-03-25T13:02:07.033Z,106.88
2023-03-25T13:03:08.234Z,118.13
2023-03-25T13:04:07.982Z,123.75
2023-03-25T13:05:08.345Z,140.63
2023-03-25T13:06:09.483Z,438.75
2023-03-25T13:07:10.414Z,180
2023-03-25T13:08:10.403Z,213.75
2023-03-25T13:09:11.362Z,163.13
2023-03-25T13:10:11.918Z,123.75
2023-03-25T13:11:12.716Z,118.13
2023-03-25T13:12:13.419Z,118.13
2023-03-25T13:13:13.967Z,135
2023-03-25T13:14:14.486Z,163.13
2023-03-25T13:15:19.752Z,185.63
2023-03-25T13:16:15.921Z,315
2023-03-25T13:17:15.434Z,180
2023-03-25T13:18:16.619Z,123.75
2023-03-25T13:19:16.544Z,106.88
2023-03-25T13:20:17.465Z,95.63
2023-03-25T13:21:25.155Z,95.63
2023-03-25T13:22:18.616Z,112.5
2023-03-25T13:23:19.189Z,360
2023-03-25T13:24:20.392Z,410.63
2023-03-25T13:25:21.152Z,399.38
2023-03-25T13:26:21.624Z,405
2023-03-25T13:27:22.317Z,399.38
2023-03-25T13:28:22.839Z,382.5
2023-03-25T13:29:23.325Z,365.63
2023-03-25T13:30:24.697Z,354.38
2023-03-25T13:31:25.460Z,348.75
2023-03-25T13:32:25.765Z,343.13
2023-03-25T13:33:25.298Z,343.13
2023-03-25T13:34:26.018Z,337.5
2023-03-25T13:35:26.575Z,337.5
2023-03-25T13:36:27.682Z,337.5
2023-03-25T13:37:28.345Z,191.25
2023-03-25T13:38:29.280Z,337.5
2023-03-25T13:39:30.481Z,331.88
2023-03-25T13:40:30.934Z,331.88
2023-03-25T13:41:30.254Z,337.5
2023-03-25T13:42:30.950Z,337.5
2023-03-25T13:43:31.895Z,337.5
2023-03-25T13:44:32.612Z,281.25
2023-03-25T13:45:33.514Z,225
2023-03-25T13:46:34.240Z,376.88
2023-03-25T13:47:35.342Z,371.25